Time;durP1;ratioP1;P1;durP2;ratioP2;P2;SDS_P1;SDS_P2;PMS_P1;PMS_P2;Temp;Humidity;BMP_temperature;BMP_pressure;BME280_temperature;BME280_humidity;BME280_pressure;Samples;Min_cycle;Max_cycle;Signal;HPM_P1;HPM_P2
2023/11/30 00:01:30;;;;;;;26.23;15.70;;;;;;;;;;4982213;28;20302;-78
2023/11/30 00:03:56;;;;;;;29.33;16.88;;;;;;;;;;4982966;28;20212;-78
2023/11/30 00:06:22;;;;;;;27.70;15.60;;;;;;;;;;4983205;28;20186;-78
2023/11/30 00:08:49;;;;;;;26.03;16.03;;;;;;;;;;4983829;28;20184;-78
2023/11/30 00:11:15;;;;;;;22.55;15.15;;;;;;;;;;4983369;28;20420;-78
2023/11/30 00:13:41;;;;;;;23.70;14.95;;;;;;;;;;4982652;28;20257;-77
2023/11/30 00:16:07;;;;;;;23.57;15.27;;;;;;;;;;4983892;28;20217;-77
2023/11/30 00:18:33;;;;;;;24.27;15.48;;;;;;;;;;4983414;28;20403;-78
2023/11/30 00:20:59;;;;;;;20.60;14.70;;;;;;;;;;4981934;28;20187;-78
2023/11/30 00:23:25;;;;;;;24.70;15.68;;;;;;;;;;4982440;28;20444;-78
2023/11/30 00:25:51;;;;;;;26.58;16.50;;;;;;;;;;4982730;28;20208;-78
2023/11/30 00:28:17;;;;;;;31.37;19.80;;;;;;;;;;4982529;28;20247;-78
2023/11/30 00:30:43;;;;;;;32.87;20.53;;;;;;;;;;4982364;28;20414;-78
2023/11/30 00:33:09;;;;;;;27.05;17.20;;;;;;;;;;4982087;28;20435;-78
2023/11/30 00:35:35;;;;;;;34.10;18.83;;;;;;;;;;4982180;28;20187;-78
2023/11/30 00:38:01;;;;;;;24.90;16.80;;;;;;;;;;4982139;28;20422;-78
2023/11/30 00:40:27;;;;;;;22.17;15.87;;;;;;;;;;4982133;28;20799;-78
2023/11/30 00:42:53;;;;;;;24.97;15.37;;;;;;;;;;4982214;28;20411;-78
2023/11/30 00:45:19;;;;;;;29.17;16.40;;;;;;;;;;4981699;28;20525;-78
2023/11/30 00:47:45;;;;;;;28.13;16.07;;;;;;;;;;4982490;28;20185;-78
2023/11/30 00:50:11;;;;;;;27.50;17.27;;;;;;;;;;4982599;28;20490;-78
2023/11/30 00:52:37;;;;;;;32.50;18.70;;;;;;;;;;4982496;28;20883;-79
2023/11/30 00:55:03;;;;;;;23.63;15.95;;;;;;;;;;4982678;28;20828;-79
2023/11/30 00:57:29;;;;;;;24.10;17.02;;;;;;;;;;4982443;28;20179;-79
2023/11/30 00:59:55;;;;;;;25.80;15.55;;;;;;;;;;4997431;28;20180;-78
2023/11/30 01:02:21;;;;;;;23.63;15.60;;;;;;;;;;4982168;28;20177;-79
2023/11/30 01:04:47;;;;;;;20.10;14.90;;;;;;;;;;4981226;28;20214;-78
2023/11/30 01:07:13;;;;;;;17.80;13.48;;;;;;;;;;4982104;28;20427;-78
2023/11/30 01:09:39;;;;;;;22.85;14.07;;;;;;;;;;4981989;28;20176;-79
2023/11/30 01:12:05;;;;;;;17.92;13.95;;;;;;;;;;4981437;28;20172;-79
2023/11/30 01:14:31;;;;;;;21.85;14.88;;;;;;;;;;4982419;28;20243;-78
2023/11/30 01:16:57;;;;;;;21.13;13.57;;;;;;;;;;4982709;28;20203;-78
2023/11/30 01:19:23;;;;;;;19.80;15.30;;;;;;;;;;4982763;28;20180;-78
2023/11/30 01:21:49;;;;;;;23.63;15.32;;;;;;;;;;4982557;28;20443;-77
2023/11/30 01:24:15;;;;;;;23.20;15.37;;;;;;;;;;4982276;28;20616;-79
2023/11/30 01:26:41;;;;;;;24.10;15.70;;;;;;;;;;4981410;28;20558;-78
2023/11/30 01:29:07;;;;;;;19.38;14.68;;;;;;;;;;4982092;28;20219;-78
2023/11/30 01:31:33;;;;;;;22.20;14.82;;;;;;;;;;4982104;28;20186;-78
2023/11/30 01:33:59;;;;;;;27.80;15.97;;;;;;;;;;4982509;28;20176;-78
2023/11/30 01:36:25;;;;;;;25.30;15.60;;;;;;;;;;4982134;28;20463;-78
2023/11/30 01:38:51;;;;;;;25.17;16.87;;;;;;;;;;4981810;28;20424;-78
2023/11/30 01:41:17;;;;;;;19.17;14.23;;;;;;;;;;4981852;28;20419;-79
2023/11/30 01:43:43;;;;;;;21.75;15.50;;;;;;;;;;4982502;28;20898;-78
2023/11/30 01:46:09;;;;;;;22.97;14.60;;;;;;;;;;4981925;28;20212;-78
2023/11/30 01:48:35;;;;;;;22.08;13.98;;;;;;;;;;4981598;28;20962;-78
2023/11/30 01:51:04;;;;;;;27.02;16.13;;;;;;;;;;4982381;28;20184;-78
2023/11/30 01:53:30;;;;;;;20.00;14.43;;;;;;;;;;4982385;28;20674;-78
2023/11/30 01:55:56;;;;;;;27.15;15.05;;;;;;;;;;4982054;28;20203;-77
2023/11/30 01:58:22;;;;;;;21.30;15.82;;;;;;;;;;4981755;28;20173;-78
2023/11/30 02:00:48;;;;;;;22.00;15.07;;;;;;;;;;4982432;28;20683;-78
2023/11/30 02:03:15;;;;;;;24.90;16.85;;;;;;;;;;4982230;28;20276;-77
2023/11/30 02:05:41;;;;;;;21.52;14.75;;;;;;;;;;4981989;28;20599;-78
2023/11/30 02:08:07;;;;;;;21.17;15.30;;;;;;;;;;4981859;28;20622;-78
2023/11/30 02:10:33;;;;;;;24.50;14.13;;;;;;;;;;4981763;28;20270;-78
2023/11/30 02:12:59;;;;;;;22.73;13.77;;;;;;;;;;4981832;28;20399;-78
2023/11/30 02:15:24;;;;;;;20.53;13.27;;;;;;;;;;4981528;28;20414;-78
2023/11/30 02:17:50;;;;;;;23.98;14.10;;;;;;;;;;4982485;28;20404;-78
2023/11/30 02:20:18;;;;;;;21.60;14.80;;;;;;;;;;4981468;28;20176;-77
2023/11/30 02:22:44;;;;;;;24.52;15.20;;;;;;;;;;4982290;28;20503;-78
2023/11/30 02:25:09;;;;;;;20.55;14.73;;;;;;;;;;4985347;28;20215;-77
2023/11/30 02:27:35;;;;;;;24.97;15.73;;;;;;;;;;4985704;28;20239;-78
2023/11/30 02:30:01;;;;;;;23.10;14.00;;;;;;;;;;4984880;28;20406;-78
2023/11/30 02:32:27;;;;;;;23.57;14.30;;;;;;;;;;4985171;28;20400;-78
2023/11/30 02:34:53;;;;;;;19.80;15.18;;;;;;;;;;4985935;28;20977;-78
2023/11/30 02:37:19;;;;;;;24.38;15.65;;;;;;;;;;4984844;28;20180;-80
2023/11/30 02:39:45;;;;;;;23.60;15.03;;;;;;;;;;4985144;28;20176;-78
2023/11/30 02:42:11;;;;;;;21.80;14.67;;;;;;;;;;4984637;28;20443;-78
2023/11/30 02:44:37;;;;;;;25.40;15.25;;;;;;;;;;4985247;28;20934;-78
2023/11/30 02:47:03;;;;;;;21.67;15.50;;;;;;;;;;4984967;28;20234;-78
2023/11/30 02:49:29;;;;;;;24.27;14.73;;;;;;;;;;4984630;28;20396;-78
2023/11/30 02:51:56;;;;;;;24.07;15.07;;;;;;;;;;4984223;28;20187;-78
2023/11/30 02:54:22;;;;;;;21.52;14.38;;;;;;;;;;4985035;28;20881;-79
2023/11/30 02:56:48;;;;;;;18.00;12.63;;;;;;;;;;4984630;28;20253;-78
2023/11/30 02:59:14;;;;;;;23.93;13.93;;;;;;;;;;4984510;28;20200;-78
2023/11/30 03:01:46;;;;;;;21.80;15.00;;;;;;;;;;4984810;28;20403;-78
2023/11/30 03:04:12;;;;;;;19.38;13.18;;;;;;;;;;4984701;28;20404;-78
2023/11/30 03:06:41;;;;;;;19.92;14.23;;;;;;;;;;4984890;28;20187;-78
2023/11/30 03:09:08;;;;;;;19.38;14.27;;;;;;;;;;4984773;28;20576;-78
2023/11/30 03:11:34;;;;;;;19.52;14.07;;;;;;;;;;4984431;28;20172;-78
2023/11/30 03:14:00;;;;;;;22.08;14.52;;;;;;;;;;4984617;28;20172;-78
2023/11/30 03:16:27;;;;;;;20.00;13.52;;;;;;;;;;4984912;28;20189;-79
2023/11/30 03:18:53;;;;;;;22.55;14.85;;;;;;;;;;4984486;28;20176;-78
2023/11/30 03:21:19;;;;;;;19.67;12.73;;;;;;;;;;4984202;28;20175;-78
2023/11/30 03:23:46;;;;;;;20.77;14.15;;;;;;;;;;4984545;28;20168;-78
2023/11/30 03:26:12;;;;;;;21.30;13.77;;;;;;;;;;4983694;28;20208;-78
2023/11/30 03:28:38;;;;;;;20.35;13.32;;;;;;;;;;4983653;28;20173;-78
2023/11/30 03:31:04;;;;;;;24.00;14.40;;;;;;;;;;4983658;28;20613;-78
2023/11/30 03:33:30;;;;;;;21.67;14.63;;;;;;;;;;4983336;28;20405;-79
2023/11/30 03:35:56;;;;;;;22.80;15.50;;;;;;;;;;4983121;28;20208;-78
2023/11/30 03:38:22;;;;;;;25.10;14.50;;;;;;;;;;4983923;28;20185;-78
2023/11/30 03:40:48;;;;;;;21.50;13.77;;;;;;;;;;4982437;28;20193;-78
2023/11/30 03:43:14;;;;;;;23.55;14.30;;;;;;;;;;4983889;28;20182;-78
2023/11/30 03:45:40;;;;;;;21.30;14.93;;;;;;;;;;4984353;28;20219;-78
2023/11/30 03:48:06;;;;;;;18.83;13.27;;;;;;;;;;4983480;28;20567;-78
2023/11/30 03:50:32;;;;;;;20.80;14.10;;;;;;;;;;4983183;28;20413;-79
2023/11/30 03:52:58;;;;;;;23.77;14.10;;;;;;;;;;4983775;28;20499;-79
2023/11/30 03:55:24;;;;;;;20.45;13.63;;;;;;;;;;4983222;28;20408;-80
2023/11/30 03:57:50;;;;;;;19.37;14.30;;;;;;;;;;4983046;28;20576;-79
2023/11/30 04:00:16;;;;;;;20.87;13.90;;;;;;;;;;4983002;28;20422;-78
2023/11/30 04:02:42;;;;;;;24.48;14.27;;;;;;;;;;4982845;28;20407;-78
2023/11/30 04:05:10;;;;;;;22.77;14.50;;;;;;;;;;4983410;28;20799;-78
2023/11/30 04:07:38;;;;;;;20.70;13.65;;;;;;;;;;4983205;28;20260;-78
2023/11/30 04:10:05;;;;;;;27.85;15.50;;;;;;;;;;4983671;28;20177;-78
2023/11/30 04:12:31;;;;;;;25.85;16.35;;;;;;;;;;4982932;28;20178;-78
2023/11/30 04:14:57;;;;;;;23.90;16.57;;;;;;;;;;4983606;28;20583;-78
2023/11/30 04:17:23;;;;;;;23.40;16.37;;;;;;;;;;4983119;28;20411;-78
2023/11/30 04:19:49;;;;;;;25.60;16.20;;;;;;;;;;4982373;28;20444;-78
2023/11/30 04:22:15;;;;;;;21.73;15.98;;;;;;;;;;4982678;28;20184;-78
2023/11/30 04:24:41;;;;;;;26.88;18.10;;;;;;;;;;4982497;28;20555;-78
2023/11/30 04:27:08;;;;;;;27.83;16.23;;;;;;;;;;4982438;28;20228;-78
2023/11/30 04:29:34;;;;;;;26.80;18.08;;;;;;;;;;4982604;28;20429;-77
2023/11/30 04:32:01;;;;;;;26.70;17.33;;;;;;;;;;4982620;28;20580;-78
2023/11/30 04:34:27;;;;;;;27.73;19.38;;;;;;;;;;4982467;28;20205;-78
2023/11/30 04:36:53;;;;;;;29.57;18.20;;;;;;;;;;4982825;28;20184;-78
2023/11/30 04:39:20;;;;;;;30.97;18.80;;;;;;;;;;4982695;28;20404;-78
2023/11/30 04:41:46;;;;;;;31.08;19.52;;;;;;;;;;4982410;28;20411;-78
2023/11/30 04:44:14;;;;;;;30.17;19.85;;;;;;;;;;4982695;28;20186;-78
2023/11/30 04:46:40;;;;;;;32.83;20.52;;;;;;;;;;4981596;28;20178;-78
2023/11/30 04:49:06;;;;;;;32.00;18.98;;;;;;;;;;4982452;28;20174;-78
2023/11/30 04:51:32;;;;;;;35.13;18.90;;;;;;;;;;4982400;28;20180;-78
2023/11/30 04:53:58;;;;;;;29.33;18.93;;;;;;;;;;4981726;28;20231;-78
2023/11/30 04:56:24;;;;;;;31.38;19.20;;;;;;;;;;4981947;28;20427;-78
2023/11/30 04:58:50;;;;;;;39.20;21.07;;;;;;;;;;4981497;28;20176;-78
2023/11/30 05:01:16;;;;;;;30.92;19.88;;;;;;;;;;4981891;28;20400;-78
2023/11/30 05:03:42;;;;;;;29.40;19.17;;;;;;;;;;4981099;28;20215;-78
2023/11/30 05:06:08;;;;;;;30.57;20.03;;;;;;;;;;4981557;28;20468;-78
2023/11/30 05:08:34;;;;;;;30.67;19.65;;;;;;;;;;4981399;28;20424;-77
2023/11/30 05:11:00;;;;;;;31.60;19.73;;;;;;;;;;4982089;28;20191;-77
2023/11/30 05:13:27;;;;;;;33.15;21.17;;;;;;;;;;4981575;28;20709;-77
2023/11/30 05:15:53;;;;;;;42.38;21.02;;;;;;;;;;4981157;28;20187;-78
2023/11/30 05:18:19;;;;;;;35.35;21.50;;;;;;;;;;4981221;28;20179;-77
2023/11/30 05:20:45;;;;;;;32.28;20.85;;;;;;;;;;4981143;28;20173;-77
2023/11/30 05:23:11;;;;;;;34.70;20.30;;;;;;;;;;4982292;28;20228;-78
2023/11/30 05:25:37;;;;;;;30.95;19.67;;;;;;;;;;4981709;28;20982;-78
2023/11/30 05:28:05;;;;;;;37.03;20.30;;;;;;;;;;4981007;28;20759;-78
2023/11/30 05:30:32;;;;;;;33.55;20.40;;;;;;;;;;4981906;28;20176;-81
2023/11/30 05:32:57;;;;;;;34.70;21.70;;;;;;;;;;4981272;28;20179;-78
2023/11/30 05:35:23;;;;;;;38.07;23.23;;;;;;;;;;4980214;28;20180;-78
2023/11/30 05:37:49;;;;;;;35.87;21.10;;;;;;;;;;4980714;28;20455;-78
2023/11/30 05:40:18;;;;;;;36.10;20.70;;;;;;;;;;4981643;28;20415;-78
2023/11/30 05:42:44;;;;;;;37.17;21.85;;;;;;;;;;4980838;28;20416;-78
2023/11/30 05:45:10;;;;;;;37.53;20.70;;;;;;;;;;4980935;28;20220;-79
2023/11/30 05:47:36;;;;;;;38.10;20.23;;;;;;;;;;4981521;28;20503;-79
2023/11/30 05:50:03;;;;;;;41.53;23.48;;;;;;;;;;4981432;28;20499;-79
2023/11/30 05:52:30;;;;;;;38.92;22.23;;;;;;;;;;4981595;28;20165;-78
2023/11/30 05:54:57;;;;;;;37.47;20.13;;;;;;;;;;4982043;28;20178;-79
2023/11/30 05:57:23;;;;;;;40.17;22.15;;;;;;;;;;4981292;28;20443;-78
2023/11/30 05:59:49;;;;;;;46.80;23.23;;;;;;;;;;4984809;28;20231;-79
2023/11/30 06:02:17;;;;;;;42.70;25.00;;;;;;;;;;4984958;28;20181;-79
2023/11/30 06:04:52;;;;;;;39.58;22.73;;;;;;;;;;4984326;28;20475;-79
2023/11/30 06:07:19;;;;;;;45.97;23.10;;;;;;;;;;4984084;28;20187;-79
2023/11/30 06:09:45;;;;;;;37.92;22.17;;;;;;;;;;4985192;28;20176;-79
2023/11/30 06:12:11;;;;;;;38.85;20.83;;;;;;;;;;4984986;28;20185;-79
2023/11/30 06:14:37;;;;;;;45.13;21.48;;;;;;;;;;4984719;28;20179;-79
2023/11/30 06:17:03;;;;;;;36.30;20.27;;;;;;;;;;4984383;28;20169;-79
2023/11/30 06:19:30;;;;;;;40.97;22.10;;;;;;;;;;4984307;28;20173;-79
2023/11/30 06:21:56;;;;;;;36.45;20.42;;;;;;;;;;4983151;28;20219;-80
2023/11/30 06:24:22;;;;;;;43.03;20.97;;;;;;;;;;4982840;28;20178;-80
2023/11/30 06:26:48;;;;;;;44.90;23.15;;;;;;;;;;4984268;28;20460;-80
2023/11/30 06:29:15;;;;;;;46.00;21.87;;;;;;;;;;4987687;28;20180;-80
2023/11/30 06:31:42;;;;;;;41.45;23.40;;;;;;;;;;4982816;28;20411;-81
2023/11/30 06:34:07;;;;;;;39.72;21.75;;;;;;;;;;4983221;28;20169;-81
2023/11/30 06:36:33;;;;;;;41.37;20.93;;;;;;;;;;4983077;28;20583;-80
2023/11/30 06:39:00;;;;;;;40.53;21.48;;;;;;;;;;4997901;28;20431;-81
2023/11/30 06:41:25;;;;;;;44.33;21.05;;;;;;;;;;4982783;28;20173;-81
2023/11/30 06:43:51;;;;;;;45.47;22.20;;;;;;;;;;4982278;28;20174;-86
2023/11/30 06:46:21;;;;;;;37.67;19.27;;;;;;;;;;4981071;28;20556;-86
2023/11/30 06:48:47;;;;;;;36.33;21.08;;;;;;;;;;4979858;28;20179;-86
2023/11/30 06:51:14;;;;;;;37.97;20.52;;;;;;;;;;4996573;28;20171;-86
2023/11/30 06:53:40;;;;;;;40.35;21.55;;;;;;;;;;4980421;28;20174;-86
2023/11/30 06:56:06;;;;;;;41.95;21.73;;;;;;;;;;4980969;28;20178;-87
2023/11/30 06:58:32;;;;;;;40.22;21.52;;;;;;;;;;4981205;28;20183;-86
2023/11/30 07:00:58;;;;;;;34.92;21.20;;;;;;;;;;4979369;28;20176;-86
2023/11/30 07:03:28;;;;;;;37.88;21.77;;;;;;;;;;4979894;28;20177;-86
2023/11/30 07:05:54;;;;;;;38.25;21.10;;;;;;;;;;4979029;28;20225;-86
2023/11/30 07:08:20;;;;;;;37.77;20.97;;;;;;;;;;4980123;28;20181;-86
2023/11/30 07:10:46;;;;;;;36.37;20.60;;;;;;;;;;4977887;28;20420;-86
2023/11/30 07:13:12;;;;;;;37.05;21.17;;;;;;;;;;4980671;28;20406;-85
2023/11/30 07:15:38;;;;;;;40.53;21.67;;;;;;;;;;4996280;28;20620;-87
2023/11/30 07:18:04;;;;;;;43.10;21.80;;;;;;;;;;4995831;28;20185;-85
2023/11/30 07:20:30;;;;;;;40.05;21.67;;;;;;;;;;4980975;28;20516;-85
2023/11/30 07:22:58;;;;;;;35.55;19.27;;;;;;;;;;4995985;28;20177;-86
2023/11/30 07:25:24;;;;;;;47.80;21.20;;;;;;;;;;4980539;28;20201;-85
2023/11/30 07:27:53;;;;;;;37.47;20.02;;;;;;;;;;4980135;28;20235;-86
2023/11/30 07:30:19;;;;;;;41.92;19.65;;;;;;;;;;4980510;28;20264;-85
2023/11/30 07:32:45;;;;;;;43.25;21.90;;;;;;;;;;4979902;28;20177;-85
2023/11/30 07:35:12;;;;;;;36.05;20.35;;;;;;;;;;4995593;28;20177;-85
2023/11/30 07:37:38;;;;;;;38.95;19.60;;;;;;;;;;4979234;28;20187;-88
2023/11/30 07:40:04;;;;;;;37.22;21.40;;;;;;;;;;4979315;28;20184;-85
2023/11/30 07:42:30;;;;;;;33.47;18.58;;;;;;;;;;4978958;28;20179;-85
2023/11/30 07:44:57;;;;;;;36.20;19.42;;;;;;;;;;4978877;28;20204;-85
2023/11/30 07:47:23;;;;;;;38.53;21.88;;;;;;;;;;4979126;28;20629;-85
2023/11/30 07:49:49;;;;;;;37.58;18.63;;;;;;;;;;4980029;28;20189;-85
2023/11/30 07:52:15;;;;;;;38.65;22.55;;;;;;;;;;4980294;28;20165;-85
2023/11/30 07:54:41;;;;;;;33.65;19.08;;;;;;;;;;4978420;28;20206;-85
2023/11/30 07:57:07;;;;;;;39.20;20.35;;;;;;;;;;4979943;28;20516;-85
2023/11/30 07:59:33;;;;;;;31.37;19.27;;;;;;;;;;4978561;28;20188;-85
2023/11/30 08:02:00;;;;;;;37.22;19.33;;;;;;;;;;4978715;28;20954;-85
2023/11/30 08:04:26;;;;;;;34.97;18.90;;;;;;;;;;4979014;28;20234;-84
2023/11/30 08:06:52;;;;;;;32.47;19.38;;;;;;;;;;4978032;28;20675;-84
2023/11/30 08:09:18;;;;;;;34.42;18.42;;;;;;;;;;4978310;28;20337;-84
2023/11/30 08:11:44;;;;;;;32.03;18.05;;;;;;;;;;4978308;28;20194;-85
2023/11/30 08:14:10;;;;;;;31.73;17.90;;;;;;;;;;4979582;28;20533;-85
2023/11/30 08:16:36;;;;;;;27.00;16.47;;;;;;;;;;4978427;28;20408;-84
2023/11/30 08:19:02;;;;;;;34.08;17.85;;;;;;;;;;4979213;28;20409;-85
2023/11/30 08:21:28;;;;;;;31.27;17.42;;;;;;;;;;4994102;28;20177;-85
2023/11/30 08:23:54;;;;;;;31.02;18.48;;;;;;;;;;4993608;28;20202;-84
2023/11/30 08:26:20;;;;;;;30.98;17.02;;;;;;;;;;4977749;28;20248;-85
2023/11/30 08:28:46;;;;;;;27.45;16.00;;;;;;;;;;4977976;28;20178;-85
2023/11/30 08:31:12;;;;;;;25.75;16.38;;;;;;;;;;4978207;28;20621;-85
2023/11/30 08:33:39;;;;;;;33.78;17.00;;;;;;;;;;4977928;28;20227;-84
2023/11/30 08:36:05;;;;;;;29.50;15.48;;;;;;;;;;4978140;28;20190;-84
2023/11/30 08:38:37;;;;;;;27.05;15.23;;;;;;;;;;4994039;28;20179;-85
2023/11/30 08:41:03;;;;;;;24.02;14.85;;;;;;;;;;4978901;28;20253;-85
2023/11/30 08:43:30;;;;;;;31.02;16.77;;;;;;;;;;4977986;28;20186;-84
2023/11/30 08:45:56;;;;;;;35.88;20.50;;;;;;;;;;4993935;28;20568;-85
2023/11/30 08:48:22;;;;;;;36.83;19.50;;;;;;;;;;4977640;28;20190;-85
2023/11/30 08:50:48;;;;;;;36.85;19.33;;;;;;;;;;4977772;28;20236;-85
2023/11/30 08:53:16;;;;;;;41.90;22.38;;;;;;;;;;4993541;28;20658;-84
2023/11/30 08:55:44;;;;;;;34.58;19.88;;;;;;;;;;4978126;28;20199;-85
2023/11/30 08:58:10;;;;;;;34.17;19.80;;;;;;;;;;4993669;28;20183;-85
2023/11/30 09:00:39;;;;;;;43.20;21.35;;;;;;;;;;4977578;28;20269;-84
2023/11/30 09:03:05;;;;;;;47.35;23.73;;;;;;;;;;4978623;28;20675;-85
2023/11/30 09:05:31;;;;;;;39.95;21.10;;;;;;;;;;4977782;28;20214;-84
2023/11/30 09:07:57;;;;;;;42.10;21.50;;;;;;;;;;4977278;28;20189;-85
2023/11/30 09:10:23;;;;;;;39.45;22.23;;;;;;;;;;4978335;28;20258;-84
2023/11/30 09:12:49;;;;;;;39.80;21.90;;;;;;;;;;4977371;28;20204;-85
2023/11/30 09:15:15;;;;;;;38.97;19.95;;;;;;;;;;4993577;28;20410;-84
2023/11/30 09:17:42;;;;;;;37.20;20.75;;;;;;;;;;4977255;28;20709;-84
2023/11/30 09:20:08;;;;;;;35.90;21.27;;;;;;;;;;4978316;28;20658;-84
2023/11/30 09:22:37;;;;;;;39.35;22.02;;;;;;;;;;4977148;28;20171;-85
2023/11/30 09:25:04;;;;;;;36.03;21.90;;;;;;;;;;4978126;28;20283;-84
2023/11/30 09:27:30;;;;;;;36.85;22.35;;;;;;;;;;4978377;28;20577;-84
2023/11/30 09:29:56;;;;;;;38.30;21.77;;;;;;;;;;4977099;28;20172;-84
2023/11/30 09:32:22;;;;;;;35.47;21.02;;;;;;;;;;4976262;28;20411;-84
2023/11/30 09:34:48;;;;;;;40.42;21.92;;;;;;;;;;4976523;28;20176;-85
2023/11/30 09:37:14;;;;;;;35.95;21.27;;;;;;;;;;4977103;28;20654;-84
2023/11/30 09:39:40;;;;;;;43.20;23.50;;;;;;;;;;4978694;28;20201;-84
2023/11/30 09:42:07;;;;;;;35.63;19.85;;;;;;;;;;4992935;28;20413;-84
2023/11/30 09:44:33;;;;;;;37.22;19.75;;;;;;;;;;4977966;28;20172;-84
2023/11/30 09:46:59;;;;;;;36.42;20.35;;;;;;;;;;4978222;28;20233;-84
2023/11/30 09:49:25;;;;;;;34.72;20.02;;;;;;;;;;4977173;28;20183;-84
2023/11/30 09:51:52;;;;;;;35.25;19.05;;;;;;;;;;4977011;28;20171;-85
2023/11/30 09:54:19;;;;;;;34.95;19.05;;;;;;;;;;4978207;28;20178;-84
2023/11/30 09:56:45;;;;;;;32.28;17.23;;;;;;;;;;4977183;28;20267;-84
2023/11/30 09:59:12;;;;;;;33.28;19.80;;;;;;;;;;4978014;28;20172;-84
2023/11/30 10:01:41;;;;;;;30.77;19.35;;;;;;;;;;4978194;28;20624;-84
2023/11/30 10:04:16;;;;;;;31.88;17.95;;;;;;;;;;4978127;28;20187;-84
2023/11/30 10:06:43;;;;;;;32.78;19.08;;;;;;;;;;4977800;28;20191;-84
2023/11/30 10:09:12;;;;;;;33.80;20.08;;;;;;;;;;4977594;28;20516;-84
2023/11/30 10:11:40;;;;;;;34.75;21.02;;;;;;;;;;4976338;28;20187;-84
2023/11/30 10:14:06;;;;;;;32.13;20.13;;;;;;;;;;4977337;28;20174;-84
2023/11/30 10:16:32;;;;;;;35.45;20.08;;;;;;;;;;4977076;28;20680;-84
2023/11/30 10:18:58;;;;;;;36.30;20.60;;;;;;;;;;4977884;28;20183;-84
2023/11/30 10:21:24;;;;;;;33.03;19.37;;;;;;;;;;4979494;28;20414;-84
2023/11/30 10:23:50;;;;;;;30.30;18.48;;;;;;;;;;4977879;28;20760;-85
2023/11/30 10:26:17;;;;;;;31.50;19.50;;;;;;;;;;4975788;28;20204;-85
2023/11/30 10:28:43;;;;;;;36.30;20.73;;;;;;;;;;4978004;28;20418;-84
2023/11/30 10:31:11;;;;;;;39.88;21.88;;;;;;;;;;4977509;28;20226;-84
2023/11/30 10:33:40;;;;;;;33.70;18.88;;;;;;;;;;4975845;28;20326;-84
2023/11/30 10:36:07;;;;;;;26.50;17.52;;;;;;;;;;4977385;28;20176;-84
2023/11/30 10:38:33;;;;;;;31.90;19.35;;;;;;;;;;4976663;28;20542;-84
2023/11/30 10:41:09;;;;;;;28.38;16.80;;;;;;;;;;4992477;28;20171;-84
2023/11/30 10:43:40;;;;;;;35.28;20.58;;;;;;;;;;4978033;28;20189;-84
2023/11/30 10:46:07;;;;;;;29.92;20.10;;;;;;;;;;4979902;28;20217;-84
2023/11/30 10:48:34;;;;;;;30.73;18.98;;;;;;;;;;4995823;28;20185;-83
2023/11/30 10:51:00;;;;;;;28.77;18.92;;;;;;;;;;4979498;28;20190;-84
2023/11/30 10:53:41;;;;;;;32.97;20.08;;;;;;;;;;4980454;28;20171;-83
2023/11/30 10:56:07;;;;;;;32.65;20.88;;;;;;;;;;4979514;28;20280;-83
2023/11/30 10:58:33;;;;;;;32.28;20.70;;;;;;;;;;4980130;28;20195;-84
2023/11/30 11:00:59;;;;;;;30.08;20.25;;;;;;;;;;4978816;28;20183;-84
2023/11/30 11:03:27;;;;;;;33.25;19.77;;;;;;;;;;4980641;28;20176;-83
2023/11/30 11:05:54;;;;;;;35.67;20.48;;;;;;;;;;4980441;28;20449;-83
2023/11/30 11:08:20;;;;;;;29.00;20.00;;;;;;;;;;4980535;28;20219;-83
2023/11/30 11:10:50;;;;;;;30.70;18.40;;;;;;;;;;4980229;28;20188;-84
2023/11/30 11:13:23;;;;;;;32.33;19.55;;;;;;;;;;4979275;28;20255;-83
2023/11/30 11:16:02;;;;;;;29.20;19.17;;;;;;;;;;4980180;28;20172;-83
2023/11/30 11:18:32;;;;;;;27.42;18.05;;;;;;;;;;4980391;28;20215;-83
2023/11/30 11:20:58;;;;;;;26.35;17.58;;;;;;;;;;4980159;28;20168;-83
2023/11/30 11:23:32;;;;;;;31.95;21.05;;;;;;;;;;4978750;28;20168;-84
2023/11/30 11:25:58;;;;;;;27.00;18.05;;;;;;;;;;4980086;28;20206;-83
2023/11/30 11:28:25;;;;;;;29.03;17.73;;;;;;;;;;4978830;28;20290;-83
2023/11/30 11:30:51;;;;;;;40.40;19.05;;;;;;;;;;4980104;28;20411;-86
2023/11/30 11:33:18;;;;;;;26.48;18.05;;;;;;;;;;4979961;28;20191;-83
2023/11/30 11:35:46;;;;;;;25.63;18.05;;;;;;;;;;4978862;28;20207;-84
2023/11/30 11:38:11;;;;;;;31.15;18.13;;;;;;;;;;4980112;28;20612;-83
2023/11/30 11:40:39;;;;;;;24.63;16.70;;;;;;;;;;4978654;28;20190;-83
2023/11/30 11:43:05;;;;;;;27.42;16.65;;;;;;;;;;4979907;28;20525;-84
2023/11/30 11:45:32;;;;;;;24.70;17.23;;;;;;;;;;4979860;28;20203;-83
2023/11/30 11:47:58;;;;;;;30.60;19.92;;;;;;;;;;4978299;28;20652;-84
2023/11/30 11:50:24;;;;;;;22.57;15.87;;;;;;;;;;4979694;28;20175;-83
2023/11/30 11:52:50;;;;;;;25.98;16.33;;;;;;;;;;4979528;28;20542;-83
2023/11/30 11:55:16;;;;;;;22.88;15.50;;;;;;;;;;4977888;28;20602;-83
2023/11/30 11:57:44;;;;;;;25.58;18.45;;;;;;;;;;4977945;28;20190;-83
2023/11/30 12:00:20;;;;;;;22.70;17.23;;;;;;;;;;4978730;28;20174;-83
2023/11/30 12:02:46;;;;;;;21.35;15.27;;;;;;;;;;4979431;28;20631;-83
2023/11/30 12:05:13;;;;;;;22.95;16.00;;;;;;;;;;4977771;28;20204;-83
2023/11/30 12:07:56;;;;;;;22.17;13.93;;;;;;;;;;4979342;28;20180;-83
2023/11/30 12:10:30;;;;;;;22.77;16.52;;;;;;;;;;4978939;28;20207;-83
2023/11/30 12:12:57;;;;;;;19.73;14.95;;;;;;;;;;4979204;28;20245;-84
2023/11/30 12:15:23;;;;;;;21.30;14.43;;;;;;;;;;4977663;28;20180;-83
2023/11/30 12:17:49;;;;;;;19.40;15.07;;;;;;;;;;4993521;28;20520;-83
2023/11/30 12:20:19;;;;;;;26.60;18.47;;;;;;;;;;4978158;28;20185;-83
2023/11/30 12:22:45;;;;;;;20.13;14.73;;;;;;;;;;4978476;28;20885;-83
2023/11/30 12:25:11;;;;;;;25.38;17.38;;;;;;;;;;4978479;28;20208;-83
2023/11/30 12:27:37;;;;;;;19.25;14.93;;;;;;;;;;4977346;28;20239;-83
2023/11/30 12:30:04;;;;;;;20.75;14.85;;;;;;;;;;4977986;28;20191;-83
2023/11/30 12:32:30;;;;;;;17.08;13.18;;;;;;;;;;4978728;28;20516;-83
2023/11/30 12:34:57;;;;;;;18.00;14.32;;;;;;;;;;4993599;28;20186;-85
2023/11/30 12:37:23;;;;;;;23.90;16.27;;;;;;;;;;4978836;28;20235;-83
2023/11/30 12:39:49;;;;;;;21.30;15.98;;;;;;;;;;4978077;28;20179;-83
2023/11/30 12:42:16;;;;;;;18.17;14.23;;;;;;;;;;4976980;28;20177;-83
2023/11/30 12:44:42;;;;;;;20.08;13.05;;;;;;;;;;4978634;28;20235;-83
2023/11/30 12:47:10;;;;;;;22.80;16.23;;;;;;;;;;4977407;28;20172;-83
2023/11/30 12:49:36;;;;;;;20.73;14.60;;;;;;;;;;4978419;28;20491;-83
2023/11/30 12:52:03;;;;;;;19.48;14.88;;;;;;;;;;4976585;28;20211;-83
2023/11/30 12:54:28;;;;;;;16.95;13.82;;;;;;;;;;4978242;28;20187;-83
2023/11/30 12:56:54;;;;;;;22.60;14.90;;;;;;;;;;4978181;28;20175;-83
2023/11/30 12:59:20;;;;;;;17.13;12.53;;;;;;;;;;4977535;28;20404;-83
2023/11/30 13:01:47;;;;;;;16.73;11.73;;;;;;;;;;4976926;28;20412;-83
2023/11/30 13:04:13;;;;;;;16.15;12.40;;;;;;;;;;4976114;28;20173;-83
2023/11/30 13:06:42;;;;;;;15.40;11.15;;;;;;;;;;4977675;28;20213;-83
2023/11/30 13:09:09;;;;;;;15.30;11.30;;;;;;;;;;4976582;28;20632;-83
2023/11/30 13:11:35;;;;;;;13.32;10.57;;;;;;;;;;4977669;28;20180;-83
2023/11/30 13:14:02;;;;;;;14.33;11.50;;;;;;;;;;4978126;28;20176;-84
2023/11/30 13:16:28;;;;;;;15.50;11.07;;;;;;;;;;4977812;28;20430;-83
2023/11/30 13:18:54;;;;;;;15.82;10.20;;;;;;;;;;4977375;28;20195;-83
2023/11/30 13:21:22;;;;;;;13.38;10.57;;;;;;;;;;4977427;28;20227;-83
2023/11/30 13:23:48;;;;;;;13.70;9.80;;;;;;;;;;4976279;28;20176;-83
2023/11/30 13:26:14;;;;;;;13.05;10.02;;;;;;;;;;4977084;28;20204;-83
2023/11/30 13:28:40;;;;;;;12.00;9.15;;;;;;;;;;4976652;28;20180;-83
2023/11/30 13:31:07;;;;;;;12.68;9.52;;;;;;;;;;4977594;28;20172;-83
2023/11/30 13:33:33;;;;;;;11.85;9.68;;;;;;;;;;4977617;28;20184;-83
2023/11/30 13:35:59;;;;;;;13.77;9.98;;;;;;;;;;4977732;28;20172;-84
2023/11/30 13:38:26;;;;;;;14.93;10.63;;;;;;;;;;4977232;28;20184;-83
2023/11/30 13:40:52;;;;;;;15.75;10.20;;;;;;;;;;4977419;28;20797;-83
2023/11/30 13:43:18;;;;;;;11.23;9.55;;;;;;;;;;4977171;28;20486;-83
2023/11/30 13:45:44;;;;;;;12.98;10.35;;;;;;;;;;4977597;28;20271;-82
2023/11/30 13:48:11;;;;;;;10.93;8.88;;;;;;;;;;4977538;28;20184;-83
2023/11/30 13:50:37;;;;;;;15.15;9.77;;;;;;;;;;4977080;28;20214;-83
2023/11/30 13:53:04;;;;;;;14.60;10.60;;;;;;;;;;4977431;28;20168;-83
2023/11/30 13:55:30;;;;;;;12.43;11.13;;;;;;;;;;4977209;28;20338;-83
2023/11/30 13:57:56;;;;;;;14.20;10.02;;;;;;;;;;4978065;28;20251;-83
2023/11/30 14:00:23;;;;;;;14.55;10.40;;;;;;;;;;4977155;28;20185;-83
2023/11/30 14:02:49;;;;;;;12.32;10.38;;;;;;;;;;4976205;28;20300;-83
2023/11/30 14:05:15;;;;;;;14.63;9.07;;;;;;;;;;4975501;28;20758;-82
2023/11/30 14:07:41;;;;;;;10.88;8.80;;;;;;;;;;4976156;28;20180;-82
2023/11/30 14:10:09;;;;;;;12.93;9.63;;;;;;;;;;4976709;28;20575;-83
2023/11/30 14:12:35;;;;;;;11.43;9.75;;;;;;;;;;4977288;28;20638;-82
2023/11/30 14:15:02;;;;;;;12.48;9.27;;;;;;;;;;4976283;28;20172;-85